Terminal Aerodrome Forecast
Issued by NWS Charleston, WV

Current Version | Previous Version | Graphics & Text | Print | Product List | Glossary On
Versions: 1 2 3 4 5 6 7 8 9 10 11 12 13 14 15 16 17 18 19 20 21 22 23
000
FTUS41 KRLX 251100
TAFCRW
TAF
KCRW 251129Z 2512/2612 12004KT 6SM SHRA OVC060
     FM251700 11005KT 4SM SHRA OVC025
     FM251900 10005KT P6SM OVC015
     FM252300 11006KT P6SM BKN035
     FM260400 03004KT 4SM SHRA BR OVC015=

USA.gov is the U.S. government's official web portal to all federal, state and local government web resources and services.